sensor_id;sensor_type;location;lat;lon;timestamp;pressure;altitude;pressure_sealevel;temperature
29549;BMP280;16487;53.094;8.800;2024-02-21T00:00:33;101855.84;;;9.38
29549;BMP280;16487;53.094;8.800;2024-02-21T00:03:00;101857.84;;;9.43
29549;BMP280;16487;53.094;8.800;2024-02-21T00:05:27;101849.41;;;9.39
29549;BMP280;16487;53.094;8.800;2024-02-21T00:07:54;101848.13;;;9.42
29549;BMP280;16487;53.094;8.800;2024-02-21T00:10:23;101857.13;;;9.47
29549;BMP280;16487;53.094;8.800;2024-02-21T00:12:50;101859.13;;;9.40
29549;BMP280;16487;53.094;8.800;2024-02-21T00:15:17;101852.22;;;9.44
29549;BMP280;16487;53.094;8.800;2024-02-21T00:17:44;101852.91;;;9.40
29549;BMP280;16487;53.094;8.800;2024-02-21T00:20:12;101850.13;;;9.46
29549;BMP280;16487;53.094;8.800;2024-02-21T00:22:42;101834.69;;;9.42
29549;BMP280;16487;53.094;8.800;2024-02-21T00:25:10;101849.06;;;9.47
29549;BMP280;16487;53.094;8.800;2024-02-21T00:27:38;101833.84;;;9.41
29549;BMP280;16487;53.094;8.800;2024-02-21T00:30:06;101827.44;;;9.42
29549;BMP280;16487;53.094;8.800;2024-02-21T00:32:34;101828.47;;;9.41
29549;BMP280;16487;53.094;8.800;2024-02-21T00:35:01;101827.44;;;9.42
29549;BMP280;16487;53.094;8.800;2024-02-21T00:37:28;101831.41;;;9.40
29549;BMP280;16487;53.094;8.800;2024-02-21T00:39:55;101823.22;;;9.46
29549;BMP280;16487;53.094;8.800;2024-02-21T00:42:22;101822.53;;;9.39
29549;BMP280;16487;53.094;8.800;2024-02-21T00:44:51;101826.03;;;9.40
29549;BMP280;16487;53.094;8.800;2024-02-21T00:47:18;101826.03;;;9.40
29549;BMP280;16487;53.094;8.800;2024-02-21T00:49:45;101823.94;;;9.42
29549;BMP280;16487;53.094;8.800;2024-02-21T00:52:12;101824.16;;;9.40
29549;BMP280;16487;53.094;8.800;2024-02-21T00:54:39;101823.34;;;9.40
29549;BMP280;16487;53.094;8.800;2024-02-21T00:57:19;101837.63;;;9.40
29549;BMP280;16487;53.094;8.800;2024-02-21T00:59:46;101838.53;;;9.46
29549;BMP280;16487;53.094;8.800;2024-02-21T01:02:15;101824.25;;;9.45
29549;BMP280;16487;53.094;8.800;2024-02-21T01:04:42;101814.91;;;9.48
29549;BMP280;16487;53.094;8.800;2024-02-21T01:07:12;101831.06;;;9.48
29549;BMP280;16487;53.094;8.800;2024-02-21T01:09:40;101823.34;;;9.52
29549;BMP280;16487;53.094;8.800;2024-02-21T01:12:08;101820.19;;;9.43
29549;BMP280;16487;53.094;8.800;2024-02-21T01:14:36;101818.31;;;9.43
29549;BMP280;16487;53.094;8.800;2024-02-21T01:17:04;101813.03;;;9.48
29549;BMP280;16487;53.094;8.800;2024-02-21T01:19:32;101803.91;;;9.50
29549;BMP280;16487;53.094;8.800;2024-02-21T01:22:00;101806.72;;;9.55
29549;BMP280;16487;53.094;8.800;2024-02-21T01:24:27;101815.28;;;9.52
29549;BMP280;16487;53.094;8.800;2024-02-21T01:26:54;101811.78;;;9.51
29549;BMP280;16487;53.094;8.800;2024-02-21T01:29:22;101782.88;;;9.46
29549;BMP280;16487;53.094;8.800;2024-02-21T01:31:49;101781.81;;;9.47
29549;BMP280;16487;53.094;8.800;2024-02-21T01:34:18;101771.06;;;9.47
29549;BMP280;16487;53.094;8.800;2024-02-21T01:36:46;101768.59;;;9.46
29549;BMP280;16487;53.094;8.800;2024-02-21T01:39:14;101762.41;;;9.45
29549;BMP280;16487;53.094;8.800;2024-02-21T01:41:41;101745.22;;;9.46
29549;BMP280;16487;53.094;8.800;2024-02-21T01:44:08;101751.06;;;9.43
29549;BMP280;16487;53.094;8.800;2024-02-21T01:46:36;101735.25;;;9.47
29549;BMP280;16487;53.094;8.800;2024-02-21T01:49:05;101738.47;;;9.44
29549;BMP280;16487;53.094;8.800;2024-02-21T01:51:33;101736.91;;;9.48
29549;BMP280;16487;53.094;8.800;2024-02-21T01:54:01;101727.19;;;9.47
29549;BMP280;16487;53.094;8.800;2024-02-21T01:56:28;101706.19;;;9.44
29549;BMP280;16487;53.094;8.800;2024-02-21T01:58:56;101705.91;;;9.45
29549;BMP280;16487;53.094;8.800;2024-02-21T02:01:23;101693.44;;;9.39
29549;BMP280;16487;53.094;8.800;2024-02-21T02:03:51;101687.06;;;9.45
29549;BMP280;16487;53.094;8.800;2024-02-21T02:06:18;101678.94;;;9.40
29549;BMP280;16487;53.094;8.800;2024-02-21T02:08:45;101662.09;;;9.33
29549;BMP280;16487;53.094;8.800;2024-02-21T02:11:15;101643.50;;;9.32
29549;BMP280;16487;53.094;8.800;2024-02-21T02:13:43;101649.72;;;9.32
29549;BMP280;16487;53.094;8.800;2024-02-21T02:16:10;101649.84;;;9.25
29549;BMP280;16487;53.094;8.800;2024-02-21T02:18:37;101648.06;;;9.31
29549;BMP280;16487;53.094;8.800;2024-02-21T02:21:10;101657.63;;;9.27
29549;BMP280;16487;53.094;8.800;2024-02-21T02:23:39;101648.28;;;9.29
29549;BMP280;16487;53.094;8.800;2024-02-21T02:26:07;101649.72;;;9.32
29549;BMP280;16487;53.094;8.800;2024-02-21T02:28:34;101655.66;;;9.34
29549;BMP280;16487;53.094;8.800;2024-02-21T02:31:01;101671.22;;;9.32
29549;BMP280;16487;53.094;8.800;2024-02-21T02:33:34;101656.13;;;9.31
29549;BMP280;16487;53.094;8.800;2024-02-21T02:36:01;101659.88;;;9.30
29549;BMP280;16487;53.094;8.800;2024-02-21T02:38:28;101674.38;;;9.29
29549;BMP280;16487;53.094;8.800;2024-02-21T02:40:56;101653.34;;;9.26
29549;BMP280;16487;53.094;8.800;2024-02-21T02:43:23;101650.75;;;9.31
29549;BMP280;16487;53.094;8.800;2024-02-21T02:45:51;101649.91;;;9.30
29549;BMP280;16487;53.094;8.800;2024-02-21T02:48:18;101639.41;;;9.29
29549;BMP280;16487;53.094;8.800;2024-02-21T02:50:45;101640.56;;;9.33
29549;BMP280;16487;53.094;8.800;2024-02-21T02:53:12;101645.59;;;9.29
29549;BMP280;16487;53.094;8.800;2024-02-21T02:55:39;101652.41;;;9.32
29549;BMP280;16487;53.094;8.800;2024-02-21T02:58:08;101663.00;;;9.39
29549;BMP280;16487;53.094;8.800;2024-02-21T03:00:35;101661.88;;;9.35
29549;BMP280;16487;53.094;8.800;2024-02-21T03:03:02;101664.56;;;9.35
29549;BMP280;16487;53.094;8.800;2024-02-21T03:05:30;101671.91;;;9.39
29549;BMP280;16487;53.094;8.800;2024-02-21T03:07:57;101666.06;;;9.30
29549;BMP280;16487;53.094;8.800;2024-02-21T03:10:24;101672.03;;;9.33
29549;BMP280;16487;53.094;8.800;2024-02-21T03:12:52;101675.03;;;9.36
29549;BMP280;16487;53.094;8.800;2024-02-21T03:15:20;101689.19;;;9.43
29549;BMP280;16487;53.094;8.800;2024-02-21T03:17:47;101659.25;;;9.40
29549;BMP280;16487;53.094;8.800;2024-02-21T03:20:15;101658.31;;;9.46
29549;BMP280;16487;53.094;8.800;2024-02-21T03:22:42;101655.28;;;9.42
29549;BMP280;16487;53.094;8.800;2024-02-21T03:25:10;101663.47;;;9.47
29549;BMP280;16487;53.094;8.800;2024-02-21T03:27:37;101668.25;;;9.45
29549;BMP280;16487;53.094;8.800;2024-02-21T03:30:05;101657.41;;;9.40
29549;BMP280;16487;53.094;8.800;2024-02-21T03:32:33;101647.69;;;9.39
29549;BMP280;16487;53.094;8.800;2024-02-21T03:35:00;101642.31;;;9.39
29549;BMP280;16487;53.094;8.800;2024-02-21T03:37:28;101637.88;;;9.33
29549;BMP280;16487;53.094;8.800;2024-02-21T03:39:55;101636.47;;;9.30
29549;BMP280;16487;53.094;8.800;2024-02-21T03:42:22;101621.56;;;9.23
29549;BMP280;16487;53.094;8.800;2024-02-21T03:44:50;101602.28;;;9.02
29549;BMP280;16487;53.094;8.800;2024-02-21T03:47:17;101617.13;;;8.93
29549;BMP280;16487;53.094;8.800;2024-02-21T03:49:45;101605.69;;;8.86
29549;BMP280;16487;53.094;8.800;2024-02-21T03:52:12;101611.53;;;8.83
29549;BMP280;16487;53.094;8.800;2024-02-21T03:54:39;101618.63;;;8.77
29549;BMP280;16487;53.094;8.800;2024-02-21T03:57:06;101617.03;;;8.76
29549;BMP280;16487;53.094;8.800;2024-02-21T03:59:34;101638.16;;;8.72
29549;BMP280;16487;53.094;8.800;2024-02-21T04:02:01;101633.38;;;8.74
29549;BMP280;16487;53.094;8.800;2024-02-21T04:04:28;101647.88;;;8.73
29549;BMP280;16487;53.094;8.800;2024-02-21T04:06:57;101640.13;;;8.77
29549;BMP280;16487;53.094;8.800;2024-02-21T04:09:24;101641.66;;;8.73
29549;BMP280;16487;53.094;8.800;2024-02-21T04:11:51;101648.31;;;8.70
29549;BMP280;16487;53.094;8.800;2024-02-21T04:14:18;101639.19;;;8.71
29549;BMP280;16487;53.094;8.800;2024-02-21T04:16:45;101648.31;;;8.70
29549;BMP280;16487;53.094;8.800;2024-02-21T04:19:12;101647.38;;;8.65
29549;BMP280;16487;53.094;8.800;2024-02-21T04:21:40;101647.84;;;8.61
29549;BMP280;16487;53.094;8.800;2024-02-21T04:24:11;101652.19;;;8.62
29549;BMP280;16487;53.094;8.800;2024-02-21T04:26:38;101652.63;;;8.59
29549;BMP280;16487;53.094;8.800;2024-02-21T04:29:05;101657.41;;;8.57
29549;BMP280;16487;53.094;8.800;2024-02-21T04:31:32;101645.03;;;8.56
29549;BMP280;16487;53.094;8.800;2024-02-21T04:33:59;101652.03;;;8.57
29549;BMP280;16487;53.094;8.800;2024-02-21T04:36:26;101645.84;;;8.57
29549;BMP280;16487;53.094;8.800;2024-02-21T04:38:54;101670.00;;;8.57
29549;BMP280;16487;53.094;8.800;2024-02-21T04:41:22;101656.25;;;8.53
29549;BMP280;16487;53.094;8.800;2024-02-21T04:43:49;101651.13;;;8.52
29549;BMP280;16487;53.094;8.800;2024-02-21T04:46:17;101645.75;;;8.52
29549;BMP280;16487;53.094;8.800;2024-02-21T04:48:44;101645.94;;;8.50
29549;BMP280;16487;53.094;8.800;2024-02-21T04:51:11;101643.06;;;8.52
29549;BMP280;16487;53.094;8.800;2024-02-21T04:53:38;101652.59;;;8.48
29549;BMP280;16487;53.094;8.800;2024-02-21T04:56:06;101657.53;;;8.51
29549;BMP280;16487;53.094;8.800;2024-02-21T04:58:37;101660.41;;;8.49
29549;BMP280;16487;53.094;8.800;2024-02-21T05:01:04;101656.31;;;8.46
29549;BMP280;16487;53.094;8.800;2024-02-21T05:03:31;101660.66;;;8.48
29549;BMP280;16487;53.094;8.800;2024-02-21T05:05:59;101667.22;;;8.52
29549;BMP280;16487;53.094;8.800;2024-02-21T05:08:26;101670.72;;;8.52
29549;BMP280;16487;53.094;8.800;2024-02-21T05:10:53;101651.78;;;8.47
29549;BMP280;16487;53.094;8.800;2024-02-21T05:13:21;101648.25;;;8.46
29549;BMP280;16487;53.094;8.800;2024-02-21T05:15:49;101651.78;;;8.47
29549;BMP280;16487;53.094;8.800;2024-02-21T05:18:16;101648.06;;;8.48
29549;BMP280;16487;53.094;8.800;2024-02-21T05:20:44;101636.72;;;8.46
29549;BMP280;16487;53.094;8.800;2024-02-21T05:23:11;101653.44;;;8.48
29549;BMP280;16487;53.094;8.800;2024-02-21T05:25:38;101634.84;;;8.46
29549;BMP280;16487;53.094;8.800;2024-02-21T05:28:05;101637.31;;;8.48
29549;BMP280;16487;53.094;8.800;2024-02-21T05:30:32;101626.22;;;8.44
29549;BMP280;16487;53.094;8.800;2024-02-21T05:33:04;101635.69;;;8.47
29549;BMP280;16487;53.094;8.800;2024-02-21T05:35:31;101621.69;;;8.45
29549;BMP280;16487;53.094;8.800;2024-02-21T05:37:58;101624.38;;;8.45
29549;BMP280;16487;53.094;8.800;2024-02-21T05:40:25;101617.91;;;8.46
29549;BMP280;16487;53.094;8.800;2024-02-21T05:42:52;101621.91;;;8.43
29549;BMP280;16487;53.094;8.800;2024-02-21T05:45:20;101618.16;;;8.44
29549;BMP280;16487;53.094;8.800;2024-02-21T05:47:47;101615.72;;;8.43
29549;BMP280;16487;53.094;8.800;2024-02-21T05:50:15;101621.41;;;8.46
29549;BMP280;16487;53.094;8.800;2024-02-21T05:52:43;101626.22;;;8.44
29549;BMP280;16487;53.094;8.800;2024-02-21T05:55:10;101618.72;;;8.46
29549;BMP280;16487;53.094;8.800;2024-02-21T05:57:37;101610.94;;;8.45
29549;BMP280;16487;53.094;8.800;2024-02-21T06:00:05;101618.03;;;8.51
29549;BMP280;16487;53.094;8.800;2024-02-21T06:02:38;101610.66;;;8.46
29549;BMP280;16487;53.094;8.800;2024-02-21T06:05:05;101623.06;;;8.48
29549;BMP280;16487;53.094;8.800;2024-02-21T06:07:34;101617.25;;;8.51
29549;BMP280;16487;53.094;8.800;2024-02-21T06:10:02;101607.06;;;8.53
29549;BMP280;16487;53.094;8.800;2024-02-21T06:12:29;101612.22;;;8.54
29549;BMP280;16487;53.094;8.800;2024-02-21T06:14:56;101605.91;;;8.49
29549;BMP280;16487;53.094;8.800;2024-02-21T06:17:24;101617.44;;;8.49
29549;BMP280;16487;53.094;8.800;2024-02-21T06:19:51;101615.72;;;8.55
29549;BMP280;16487;53.094;8.800;2024-02-21T06:22:22;101617.81;;;8.53
29549;BMP280;16487;53.094;8.800;2024-02-21T06:24:50;101609.75;;;8.53
29549;BMP280;16487;53.094;8.800;2024-02-21T06:27:17;101606.25;;;8.52
29549;BMP280;16487;53.094;8.800;2024-02-21T06:29:47;101610.94;;;8.57
29549;BMP280;16487;53.094;8.800;2024-02-21T06:32:14;101598.81;;;8.54
29549;BMP280;16487;53.094;8.800;2024-02-21T06:34:41;101605.81;;;8.55
29549;BMP280;16487;53.094;8.800;2024-02-21T06:37:08;101600.09;;;8.52
29549;BMP280;16487;53.094;8.800;2024-02-21T06:39:37;101616.19;;;8.52
29549;BMP280;16487;53.094;8.800;2024-02-21T06:42:06;101614.91;;;8.54
29549;BMP280;16487;53.094;8.800;2024-02-21T06:44:33;101614.91;;;8.54
29549;BMP280;16487;53.094;8.800;2024-02-21T06:47:00;101614.69;;;8.56
29549;BMP280;16487;53.094;8.800;2024-02-21T06:49:27;101616.78;;;8.54
29549;BMP280;16487;53.094;8.800;2024-02-21T06:51:54;101621.09;;;8.55
29549;BMP280;16487;53.094;8.800;2024-02-21T06:54:21;101622.75;;;8.56
29549;BMP280;16487;53.094;8.800;2024-02-21T06:56:48;101621.94;;;8.55
29549;BMP280;16487;53.094;8.800;2024-02-21T06:59:17;101625.66;;;8.54
29549;BMP280;16487;53.094;8.800;2024-02-21T07:01:45;101618.97;;;8.57
29549;BMP280;16487;53.094;8.800;2024-02-21T07:04:13;101623.78;;;8.55
29549;BMP280;16487;53.094;8.800;2024-02-21T07:06:40;101628.91;;;8.56
29549;BMP280;16487;53.094;8.800;2024-02-21T07:09:07;101620.50;;;8.53
29549;BMP280;16487;53.094;8.800;2024-02-21T07:11:35;101614.22;;;8.59
29549;BMP280;16487;53.094;8.800;2024-02-21T07:14:02;101621.44;;;8.58
29549;BMP280;16487;53.094;8.800;2024-02-21T07:16:31;101620.06;;;8.56
29549;BMP280;16487;53.094;8.800;2024-02-21T07:18:58;101628.56;;;8.53
29549;BMP280;16487;53.094;8.800;2024-02-21T07:21:25;101633.94;;;8.53
29549;BMP280;16487;53.094;8.800;2024-02-21T07:23:52;101642.91;;;8.58
29549;BMP280;16487;53.094;8.800;2024-02-21T07:26:19;101634.41;;;8.61
29549;BMP280;16487;53.094;8.800;2024-02-21T07:28:46;101628.81;;;8.63
29549;BMP280;16487;53.094;8.800;2024-02-21T07:31:13;101634.50;;;8.67
29549;BMP280;16487;53.094;8.800;2024-02-21T07:33:42;101628.47;;;8.71
29549;BMP280;16487;53.094;8.800;2024-02-21T07:36:10;101622.47;;;8.69
29549;BMP280;16487;53.094;8.800;2024-02-21T07:38:37;101618.56;;;8.72
29549;BMP280;16487;53.094;8.800;2024-02-21T07:41:04;101614.91;;;8.78
29549;BMP280;16487;53.094;8.800;2024-02-21T07:43:32;101611.38;;;8.77
29549;BMP280;16487;53.094;8.800;2024-02-21T07:45:59;101612.59;;;8.82
29549;BMP280;16487;53.094;8.800;2024-02-21T07:48:26;101617.47;;;8.85
29549;BMP280;16487;53.094;8.800;2024-02-21T07:50:54;101615.88;;;8.84
29549;BMP280;16487;53.094;8.800;2024-02-21T07:53:21;101616.66;;;8.84
29549;BMP280;16487;53.094;8.800;2024-02-21T07:55:48;101610.13;;;8.80
29549;BMP280;16487;53.094;8.800;2024-02-21T07:58:16;101609.97;;;8.87
29549;BMP280;16487;53.094;8.800;2024-02-21T08:00:43;101604.97;;;8.90
29549;BMP280;16487;53.094;8.800;2024-02-21T08:03:10;101595.25;;;8.89
29549;BMP280;16487;53.094;8.800;2024-02-21T08:05:37;101588.28;;;8.88
29549;BMP280;16487;53.094;8.800;2024-02-21T08:08:06;101583.81;;;8.94
29549;BMP280;16487;53.094;8.800;2024-02-21T08:10:33;101583.09;;;8.99
29549;BMP280;16487;53.094;8.800;2024-02-21T08:13:00;101579.63;;;8.98
29549;BMP280;16487;53.094;8.800;2024-02-21T08:15:27;101573.75;;;9.01
29549;BMP280;16487;53.094;8.800;2024-02-21T08:17:55;101567.94;;;9.04
29549;BMP280;16487;53.094;8.800;2024-02-21T08:20:22;101567.94;;;9.04
29549;BMP280;16487;53.094;8.800;2024-02-21T08:22:49;101568.97;;;9.03
29549;BMP280;16487;53.094;8.800;2024-02-21T08:25:18;101564.88;;;9.01
29549;BMP280;16487;53.094;8.800;2024-02-21T08:27:45;101556.38;;;9.04
29549;BMP280;16487;53.094;8.800;2024-02-21T08:30:12;101549.72;;;9.06
29549;BMP280;16487;53.094;8.800;2024-02-21T08:32:40;101551.88;;;9.09
29549;BMP280;16487;53.094;8.800;2024-02-21T08:35:08;101541.47;;;9.13
29549;BMP280;16487;53.094;8.800;2024-02-21T08:37:35;101542.31;;;9.13
29549;BMP280;16487;53.094;8.800;2024-02-21T08:40:02;101546.13;;;9.18
29549;BMP280;16487;53.094;8.800;2024-02-21T08:42:31;101550.25;;;9.08
29549;BMP280;16487;53.094;8.800;2024-02-21T08:45:00;101556.69;;;9.07
29549;BMP280;16487;53.094;8.800;2024-02-21T08:47:28;101547.03;;;9.06
29549;BMP280;16487;53.094;8.800;2024-02-21T08:49:55;101547.69;;;9.13
29549;BMP280;16487;53.094;8.800;2024-02-21T08:52:22;101546.66;;;9.03
29549;BMP280;16487;53.094;8.800;2024-02-21T08:54:49;101548.16;;;9.10
29549;BMP280;16487;53.094;8.800;2024-02-21T08:57:17;101547.09;;;9.11
29549;BMP280;16487;53.094;8.800;2024-02-21T08:59:45;101538.13;;;9.06
29549;BMP280;16487;53.094;8.800;2024-02-21T09:02:12;101532.50;;;9.07
29549;BMP280;16487;53.094;8.800;2024-02-21T09:04:39;101528.63;;;9.15
29549;BMP280;16487;53.094;8.800;2024-02-21T09:07:07;101527.47;;;9.11
29549;BMP280;16487;53.094;8.800;2024-02-21T09:09:34;101522.09;;;9.11
29549;BMP280;16487;53.094;8.800;2024-02-21T09:12:01;101532.38;;;9.14
29549;BMP280;16487;53.094;8.800;2024-02-21T09:14:28;101517.44;;;9.06
29549;BMP280;16487;53.094;8.800;2024-02-21T09:16:57;101524.44;;;9.07
29549;BMP280;16487;53.094;8.800;2024-02-21T09:19:24;101517.78;;;9.10
29549;BMP280;16487;53.094;8.800;2024-02-21T09:21:51;101520.13;;;9.06
29549;BMP280;16487;53.094;8.800;2024-02-21T09:24:18;101519.63;;;9.09
29549;BMP280;16487;53.094;8.800;2024-02-21T09:26:45;101512.41;;;9.10
29549;BMP280;16487;53.094;8.800;2024-02-21T09:29:12;101520.91;;;9.07
29549;BMP280;16487;53.094;8.800;2024-02-21T09:31:40;101506.06;;;9.16
29549;BMP280;16487;53.094;8.800;2024-02-21T09:34:08;101503.94;;;9.18
29549;BMP280;16487;53.094;8.800;2024-02-21T09:36:35;101505.34;;;9.21
29549;BMP280;16487;53.094;8.800;2024-02-21T09:39:03;101501.53;;;9.05
29549;BMP280;16487;53.094;8.800;2024-02-21T09:41:30;101503.28;;;9.11
29549;BMP280;16487;53.094;8.800;2024-02-21T09:43:57;101502.06;;;9.19
29549;BMP280;16487;53.094;8.800;2024-02-21T09:46:30;101494.38;;;9.10
29549;BMP280;16487;53.094;8.800;2024-02-21T09:49:11;101504.53;;;9.20
29549;BMP280;16487;53.094;8.800;2024-02-21T09:51:41;101491.56;;;9.17
29549;BMP280;16487;53.094;8.800;2024-02-21T09:54:09;101501.13;;;9.25
29549;BMP280;16487;53.094;8.800;2024-02-21T09:56:45;101490.59;;;9.23
29549;BMP280;16487;53.094;8.800;2024-02-21T09:59:12;101487.81;;;9.18
29549;BMP280;16487;53.094;8.800;2024-02-21T10:01:40;101476.03;;;9.19
29549;BMP280;16487;53.094;8.800;2024-02-21T10:04:07;101474.78;;;9.27
29549;BMP280;16487;53.094;8.800;2024-02-21T10:06:35;101477.16;;;9.23
29549;BMP280;16487;53.094;8.800;2024-02-21T10:09:03;101468.28;;;9.23
29549;BMP280;16487;53.094;8.800;2024-02-21T10:11:30;101468.72;;;9.32
29549;BMP280;16487;53.094;8.800;2024-02-21T10:14:03;101461.22;;;9.34
29549;BMP280;16487;53.094;8.800;2024-02-21T10:16:31;101461.53;;;9.37
29549;BMP280;16487;53.094;8.800;2024-02-21T10:18:58;101456.66;;;9.34
29549;BMP280;16487;53.094;8.800;2024-02-21T10:21:25;101469.84;;;9.36
29549;BMP280;16487;53.094;8.800;2024-02-21T10:23:54;101456.50;;;9.41
29549;BMP280;16487;53.094;8.800;2024-02-21T10:26:22;101459.19;;;9.41
29549;BMP280;16487;53.094;8.800;2024-02-21T10:28:49;101448.28;;;9.47
29549;BMP280;16487;53.094;8.800;2024-02-21T10:31:23;101446.56;;;9.41
29549;BMP280;16487;53.094;8.800;2024-02-21T10:33:55;101455.00;;;9.62
29549;BMP280;16487;53.094;8.800;2024-02-21T10:36:23;101449.66;;;9.67
29549;BMP280;16487;53.094;8.800;2024-02-21T10:38:50;101447.09;;;9.72
29549;BMP280;16487;53.094;8.800;2024-02-21T10:41:20;101448.28;;;9.64
29549;BMP280;16487;53.094;8.800;2024-02-21T10:43:50;101440.72;;;9.78
29549;BMP280;16487;53.094;8.800;2024-02-21T10:46:19;101456.63;;;9.80
29549;BMP280;16487;53.094;8.800;2024-02-21T10:48:47;101444.47;;;9.77
29549;BMP280;16487;53.094;8.800;2024-02-21T10:51:16;101455.16;;;9.72
29549;BMP280;16487;53.094;8.800;2024-02-21T10:53:45;101446.16;;;9.84
29549;BMP280;16487;53.094;8.800;2024-02-21T10:56:25;101450.19;;;9.81
29549;BMP280;16487;53.094;8.800;2024-02-21T10:58:53;101448.94;;;9.89
29549;BMP280;16487;53.094;8.800;2024-02-21T11:01:21;101451.94;;;9.92
29549;BMP280;16487;53.094;8.800;2024-02-21T11:03:51;101450.56;;;10.07
29549;BMP280;16487;53.094;8.800;2024-02-21T11:06:20;101459.28;;;10.14
29549;BMP280;16487;53.094;8.800;2024-02-21T11:08:47;101449.94;;;10.22
29549;BMP280;16487;53.094;8.800;2024-02-21T11:11:14;101457.53;;;10.25
29549;BMP280;16487;53.094;8.800;2024-02-21T11:14:06;101451.75;;;10.55
29549;BMP280;16487;53.094;8.800;2024-02-21T11:16:37;101456.88;;;10.57
29549;BMP280;16487;53.094;8.800;2024-02-21T11:19:08;101471.72;;;10.81
29549;BMP280;16487;53.094;8.800;2024-02-21T11:21:36;101458.13;;;10.93
29549;BMP280;16487;53.094;8.800;2024-02-21T11:24:04;101451.97;;;11.03
29549;BMP280;16487;53.094;8.800;2024-02-21T11:26:32;101456.91;;;11.11
29549;BMP280;16487;53.094;8.800;2024-02-21T11:29:00;101447.81;;;10.90
29549;BMP280;16487;53.094;8.800;2024-02-21T11:31:38;101432.84;;;11.05
29549;BMP280;16487;53.094;8.800;2024-02-21T11:34:08;101453.50;;;11.21
29549;BMP280;16487;53.094;8.800;2024-02-21T11:36:46;101437.63;;;10.97
29549;BMP280;16487;53.094;8.800;2024-02-21T11:39:18;101423.47;;;11.07
29549;BMP280;16487;53.094;8.800;2024-02-21T11:41:45;101422.63;;;11.02
29549;BMP280;16487;53.094;8.800;2024-02-21T11:44:12;101408.75;;;10.93
29549;BMP280;16487;53.094;8.800;2024-02-21T11:46:41;101404.78;;;11.00
29549;BMP280;16487;53.094;8.800;2024-02-21T11:49:08;101413.75;;;11.06
29549;BMP280;16487;53.094;8.800;2024-02-21T11:51:35;101419.75;;;11.18
29549;BMP280;16487;53.094;8.800;2024-02-21T11:54:02;101404.81;;;11.06
29549;BMP280;16487;53.094;8.800;2024-02-21T11:56:29;101445.38;;;11.16
29549;BMP280;16487;53.094;8.800;2024-02-21T11:58:59;101417.47;;;11.00
29549;BMP280;16487;53.094;8.800;2024-02-21T12:01:26;101404.00;;;11.00
29549;BMP280;16487;53.094;8.800;2024-02-21T12:03:55;101409.53;;;10.88
29549;BMP280;16487;53.094;8.800;2024-02-21T12:06:22;101381.75;;;10.88
29549;BMP280;16487;53.094;8.800;2024-02-21T12:08:49;101384.94;;;10.85
29549;BMP280;16487;53.094;8.800;2024-02-21T12:11:18;101389.09;;;10.92
29549;BMP280;16487;53.094;8.800;2024-02-21T12:13:46;101402.59;;;10.97
29549;BMP280;16487;53.094;8.800;2024-02-21T12:16:15;101398.44;;;11.12
29549;BMP280;16487;53.094;8.800;2024-02-21T12:18:42;101403.31;;;11.15
29549;BMP280;16487;53.094;8.800;2024-02-21T12:21:11;101396.84;;;11.16
29549;BMP280;16487;53.094;8.800;2024-02-21T12:23:38;101406.50;;;11.12
29549;BMP280;16487;53.094;8.800;2024-02-21T12:26:06;101406.75;;;11.10
29549;BMP280;16487;53.094;8.800;2024-02-21T12:28:33;101396.50;;;11.07
29549;BMP280;16487;53.094;8.800;2024-02-21T12:31:00;101395.06;;;10.99
29549;BMP280;16487;53.094;8.800;2024-02-21T12:33:27;101386.84;;;11.16
29549;BMP280;16487;53.094;8.800;2024-02-21T12:35:54;101390.66;;;11.15
29549;BMP280;16487;53.094;8.800;2024-02-21T12:38:23;101373.91;;;11.13
29549;BMP280;16487;53.094;8.800;2024-02-21T12:40:50;101391.72;;;11.20
29549;BMP280;16487;53.094;8.800;2024-02-21T12:43:17;101376.22;;;11.05
29549;BMP280;16487;53.094;8.800;2024-02-21T12:45:45;101353.38;;;11.12
29549;BMP280;16487;53.094;8.800;2024-02-21T12:48:12;101362.66;;;11.27
29549;BMP280;16487;53.094;8.800;2024-02-21T12:50:40;101346.47;;;11.27
29549;BMP280;16487;53.094;8.800;2024-02-21T12:53:08;101348.16;;;11.33
29549;BMP280;16487;53.094;8.800;2024-02-21T12:55:50;101354.22;;;11.18
29549;BMP280;16487;53.094;8.800;2024-02-21T12:58:17;101341.56;;;11.18
29549;BMP280;16487;53.094;8.800;2024-02-21T13:00:45;101315.41;;;11.19
29549;BMP280;16487;53.094;8.800;2024-02-21T13:03:12;101312.75;;;11.24
29549;BMP280;16487;53.094;8.800;2024-02-21T13:05:39;101318.47;;;11.33
29549;BMP280;16487;53.094;8.800;2024-02-21T13:08:06;101306.00;;;11.22
29549;BMP280;16487;53.094;8.800;2024-02-21T13:10:34;101298.28;;;11.03
29549;BMP280;16487;53.094;8.800;2024-02-21T13:13:03;101300.28;;;11.18
29549;BMP280;16487;53.094;8.800;2024-02-21T13:15:30;101297.81;;;11.06
29549;BMP280;16487;53.094;8.800;2024-02-21T13:17:57;101296.47;;;11.09
29549;BMP280;16487;53.094;8.800;2024-02-21T13:20:25;101279.81;;;11.22
29549;BMP280;16487;53.094;8.800;2024-02-21T13:22:52;101256.91;;;11.25
29549;BMP280;16487;53.094;8.800;2024-02-21T13:25:19;101254.19;;;11.20
29549;BMP280;16487;53.094;8.800;2024-02-21T13:27:47;101240.88;;;11.03
29549;BMP280;16487;53.094;8.800;2024-02-21T13:30:17;101235.53;;;11.13
29549;BMP280;16487;53.094;8.800;2024-02-21T13:32:44;101236.44;;;11.24
29549;BMP280;16487;53.094;8.800;2024-02-21T13:35:12;101214.59;;;11.25
29549;BMP280;16487;53.094;8.800;2024-02-21T13:37:40;101219.38;;;11.18
29549;BMP280;16487;53.094;8.800;2024-02-21T13:40:08;101198.03;;;11.11
29549;BMP280;16487;53.094;8.800;2024-02-21T13:42:35;101188.91;;;11.17
29549;BMP280;16487;53.094;8.800;2024-02-21T13:45:03;101183.50;;;11.07
29549;BMP280;16487;53.094;8.800;2024-02-21T13:47:32;101176.69;;;10.99
29549;BMP280;16487;53.094;8.800;2024-02-21T13:49:59;101167.03;;;11.09
29549;BMP280;16487;53.094;8.800;2024-02-21T13:52:26;101165.16;;;11.09
29549;BMP280;16487;53.094;8.800;2024-02-21T13:54:53;101168.38;;;11.06
29549;BMP280;16487;53.094;8.800;2024-02-21T13:57:20;101144.06;;;11.01
29549;BMP280;16487;53.094;8.800;2024-02-21T13:59:48;101141.41;;;11.06
29549;BMP280;16487;53.094;8.800;2024-02-21T14:02:15;101122.28;;;11.13
29549;BMP280;16487;53.094;8.800;2024-02-21T14:04:43;101132.75;;;11.04
29549;BMP280;16487;53.094;8.800;2024-02-21T14:07:10;101119.00;;;11.06
29549;BMP280;16487;53.094;8.800;2024-02-21T14:09:37;101112.63;;;11.17